EDLP

Paderborn Lippstadt Airport

Paderborn, Germany
METAR EDLP 201220Z 33005KT 280V020 CAVOK 12/04 Q1030
Observed Flight Rules
Oct-20 @ 12:20 UTC (32 minutes ago) Visual Flight Rules
Wind Visibility Clouds
330° at 5 knots 10,000+ meters
  • Clear skies
Temperatures Readings
Current 12°C / 54°F
Dewpoint 4°C / 39°F
Humidity 58%
Altimeter 30.41" Hg
Pressure 1030 hPa
Elevation 213
METAR EDLP 201220Z 33005KT 280V020 CAVOK 12/04 Q1030
Observed Flight Rules
Oct-20 @ 12:20 UTC
(32 minutes ago)
VFR
Wind Visibility
330° at 5 knots 10,000+ meters
Clouds
  • Clear skies
Temperature Dewpoint
12°C / 54°F 4°C / 39°F
Humidity Altimeter Pressure
58% 30.41" Hg 1030 hPa